Time;durP1;ratioP1;P1;durP2;ratioP2;P2;SDS_P1;SDS_P2;PMS_P1;PMS_P2;Temp;Humidity;BMP_temperature;BMP_pressure;BME280_temperature;BME280_humidity;BME280_pressure;Samples;Min_cycle;Max_cycle;Signal;HPM_P1;HPM_P2
2024/04/06 00:01:50;;;;;;;23.23;5.45;;;;;;;;;;5013076;28;20044;-68
2024/04/06 00:04:16;;;;;;;35.58;5.97;;;;;;;;;;5012451;28;20483;-68
2024/04/06 00:06:41;;;;;;;23.60;5.35;;;;;;;;;;5012010;28;20030;-68
2024/04/06 00:09:07;;;;;;;22.98;5.78;;;;;;;;;;5012987;28;20022;-69
2024/04/06 00:11:32;;;;;;;27.25;5.15;;;;;;;;;;5012440;28;20034;-68
2024/04/06 00:13:57;;;;;;;27.15;4.55;;;;;;;;;;5012776;28;20030;-68
2024/04/06 00:16:23;;;;;;;30.00;5.35;;;;;;;;;;5013207;28;20026;-68
2024/04/06 00:18:48;;;;;;;25.50;4.43;;;;;;;;;;5012897;28;20018;-68
2024/04/06 00:21:13;;;;;;;20.27;4.40;;;;;;;;;;5013440;28;20041;-68
2024/04/06 00:23:39;;;;;;;21.27;4.55;;;;;;;;;;5012835;28;20406;-68
2024/04/06 00:26:04;;;;;;;31.50;5.63;;;;;;;;;;5012356;28;20042;-68
2024/04/06 00:28:29;;;;;;;42.60;6.95;;;;;;;;;;5012115;28;20476;-68
2024/04/06 00:30:55;;;;;;;30.65;7.35;;;;;;;;;;5013036;28;20042;-68
2024/04/06 00:33:21;;;;;;;34.30;5.53;;;;;;;;;;5012725;28;20021;-68
2024/04/06 00:35:46;;;;;;;29.70;5.25;;;;;;;;;;5011602;28;20018;-68
2024/04/06 00:38:11;;;;;;;27.90;5.43;;;;;;;;;;5013022;28;20026;-68
2024/04/06 00:40:37;;;;;;;24.83;3.85;;;;;;;;;;5012270;28;20448;-68
2024/04/06 00:43:03;;;;;;;21.67;4.65;;;;;;;;;;5012631;28;20029;-68
2024/04/06 00:45:28;;;;;;;32.17;5.75;;;;;;;;;;5012684;28;20109;-68
2024/04/06 00:47:54;;;;;;;28.33;5.25;;;;;;;;;;5013797;28;20388;-68
2024/04/06 00:50:19;;;;;;;31.38;4.80;;;;;;;;;;5015715;28;20030;-68
2024/04/06 00:52:44;;;;;;;27.08;4.85;;;;;;;;;;5016143;28;20033;-68
2024/04/06 00:55:10;;;;;;;35.38;4.70;;;;;;;;;;5016161;28;20550;-68
2024/04/06 00:57:35;;;;;;;29.60;5.15;;;;;;;;;;5012980;28;20022;-67
2024/04/06 01:00:01;;;;;;;35.33;4.97;;;;;;;;;;5004599;28;20419;-68
2024/04/06 01:02:26;;;;;;;24.75;3.75;;;;;;;;;;5014202;28;20503;-68
2024/04/06 01:04:52;;;;;;;32.05;4.30;;;;;;;;;;5016094;28;20590;-68
2024/04/06 01:07:17;;;;;;;24.75;4.53;;;;;;;;;;5015723;28;20476;-68
2024/04/06 01:09:43;;;;;;;25.38;4.05;;;;;;;;;;5015946;28;20033;-68
2024/04/06 01:12:09;;;;;;;26.27;4.68;;;;;;;;;;5016066;28;20026;-68
2024/04/06 01:14:34;;;;;;;39.13;7.30;;;;;;;;;;5014718;28;20121;-68
2024/04/06 01:16:59;;;;;;;17.23;5.32;;;;;;;;;;5015687;28;20014;-68
2024/04/06 01:19:25;;;;;;;20.60;4.68;;;;;;;;;;5015698;28;20034;-68
2024/04/06 01:21:50;;;;;;;32.88;6.50;;;;;;;;;;5015208;28;20435;-68
2024/04/06 01:24:31;;;;;;;24.15;4.80;;;;;;;;;;5015527;28;20025;-68
2024/04/06 01:27:00;;;;;;;29.75;5.18;;;;;;;;;;5014891;28;20022;-68
2024/04/06 01:29:27;;;;;;;26.35;4.35;;;;;;;;;;5013981;28;20038;-68
2024/04/06 01:31:53;;;;;;;32.22;5.07;;;;;;;;;;5014131;28;20060;-68
2024/04/06 01:34:18;;;;;;;29.20;4.90;;;;;;;;;;5014110;28;20046;-68
2024/04/06 01:36:44;;;;;;;25.98;5.15;;;;;;;;;;5015781;28;20483;-68
2024/04/06 01:39:09;;;;;;;29.50;4.90;;;;;;;;;;5014790;28;20025;-68
2024/04/06 01:41:39;;;;;;;27.45;5.10;;;;;;;;;;5014861;28;20026;-68
2024/04/06 01:44:05;;;;;;;18.52;4.05;;;;;;;;;;5013678;28;20033;-68
2024/04/06 01:46:30;;;;;;;20.77;4.18;;;;;;;;;;5013751;28;20022;-68
2024/04/06 01:48:57;;;;;;;21.73;3.92;;;;;;;;;;5014533;28;20032;-68
2024/04/06 01:51:22;;;;;;;22.77;6.43;;;;;;;;;;5013741;28;20030;-68
2024/04/06 01:53:48;;;;;;;37.97;5.38;;;;;;;;;;5014823;28;20046;-68
2024/04/06 01:56:13;;;;;;;30.17;5.38;;;;;;;;;;5014611;28;20026;-68
2024/04/06 01:58:38;;;;;;;19.05;4.38;;;;;;;;;;5013813;28;20025;-68
2024/04/06 02:01:04;;;;;;;36.45;5.15;;;;;;;;;;5013932;28;20529;-68
2024/04/06 02:03:30;;;;;;;21.88;6.25;;;;;;;;;;5014256;28;20029;-68
2024/04/06 02:05:56;;;;;;;29.48;5.05;;;;;;;;;;5013727;28;20108;-68
2024/04/06 02:08:22;;;;;;;31.35;4.90;;;;;;;;;;5014337;28;20068;-68
2024/04/06 02:10:47;;;;;;;31.45;6.10;;;;;;;;;;5012566;28;20046;-68
2024/04/06 02:13:14;;;;;;;24.63;4.47;;;;;;;;;;5014388;28;20087;-68
2024/04/06 02:15:39;;;;;;;23.05;5.00;;;;;;;;;;5014922;28;20109;-68
2024/04/06 02:18:04;;;;;;;24.95;5.70;;;;;;;;;;5014341;28;20026;-68
2024/04/06 02:20:30;;;;;;;22.83;5.35;;;;;;;;;;5013734;28;20399;-68
2024/04/06 02:22:55;;;;;;;24.00;4.03;;;;;;;;;;5013305;28;20063;-68
2024/04/06 02:25:21;;;;;;;21.27;5.80;;;;;;;;;;5014197;28;20022;-68
2024/04/06 02:27:47;;;;;;;19.92;5.18;;;;;;;;;;5013755;28;20025;-68
2024/04/06 02:30:12;;;;;;;22.63;4.47;;;;;;;;;;5014335;28;20489;-69
2024/04/06 02:32:38;;;;;;;27.17;4.40;;;;;;;;;;5013547;28;20076;-69
2024/04/06 02:35:04;;;;;;;24.92;4.05;;;;;;;;;;5012585;28;20040;-68
2024/04/06 02:37:29;;;;;;;21.17;3.95;;;;;;;;;;5013888;28;20022;-68
2024/04/06 02:39:55;;;;;;;28.13;6.45;;;;;;;;;;5014134;28;20395;-68
2024/04/06 02:42:20;;;;;;;22.25;4.13;;;;;;;;;;5013817;28;20022;-68
2024/04/06 02:44:46;;;;;;;35.25;5.40;;;;;;;;;;5013767;28;20034;-68
2024/04/06 02:47:11;;;;;;;26.85;5.68;;;;;;;;;;5013377;28;20033;-68
2024/04/06 02:49:36;;;;;;;22.55;5.07;;;;;;;;;;5014185;28;20395;-68
2024/04/06 02:52:02;;;;;;;26.45;5.20;;;;;;;;;;5014029;28;20034;-68
2024/04/06 02:54:27;;;;;;;21.85;4.03;;;;;;;;;;5013701;28;20025;-68
2024/04/06 02:56:53;;;;;;;25.83;5.20;;;;;;;;;;5014000;28;20029;-68
2024/04/06 02:59:18;;;;;;;21.98;4.50;;;;;;;;;;5013036;28;20040;-68
2024/04/06 03:01:43;;;;;;;32.05;4.50;;;;;;;;;;5013599;28;20211;-68
2024/04/06 03:04:09;;;;;;;21.27;4.22;;;;;;;;;;5013344;28;20025;-68
2024/04/06 03:06:34;;;;;;;25.02;4.13;;;;;;;;;;5013665;28;20064;-68
2024/04/06 03:09:00;;;;;;;20.77;4.85;;;;;;;;;;5013129;28;20021;-68
2024/04/06 03:11:25;;;;;;;23.20;4.43;;;;;;;;;;5013248;28;20091;-68
2024/04/06 03:13:50;;;;;;;21.92;3.72;;;;;;;;;;5012761;28;20075;-68
2024/04/06 03:16:16;;;;;;;19.65;3.42;;;;;;;;;;5013478;28;20025;-68
2024/04/06 03:18:41;;;;;;;27.10;4.07;;;;;;;;;;5013484;28;20408;-68
2024/04/06 03:21:07;;;;;;;25.13;7.43;;;;;;;;;;5013155;28;20032;-68
2024/04/06 03:23:32;;;;;;;20.10;4.43;;;;;;;;;;5011359;28;20026;-68
2024/04/06 03:25:58;;;;;;;21.90;5.32;;;;;;;;;;5013794;28;20024;-68
2024/04/06 03:28:23;;;;;;;30.20;4.40;;;;;;;;;;5012740;28;20022;-68
2024/04/06 03:30:48;;;;;;;20.73;3.40;;;;;;;;;;5013348;28;20388;-68
2024/04/06 03:33:14;;;;;;;24.92;5.22;;;;;;;;;;5012994;28;20021;-68
2024/04/06 03:35:39;;;;;;;26.17;4.72;;;;;;;;;;5012342;28;20032;-68
2024/04/06 03:38:04;;;;;;;27.23;4.07;;;;;;;;;;5012844;28;20048;-68
2024/04/06 03:40:30;;;;;;;24.15;5.88;;;;;;;;;;5013419;28;20067;-68
2024/04/06 03:42:56;;;;;;;25.00;4.55;;;;;;;;;;5012110;28;20033;-68
2024/04/06 03:45:22;;;;;;;24.42;3.58;;;;;;;;;;5013181;28;20387;-68
2024/04/06 03:47:47;;;;;;;23.80;4.15;;;;;;;;;;5012935;28;20076;-68
2024/04/06 03:50:14;;;;;;;15.70;3.97;;;;;;;;;;5012930;28;20030;-68
2024/04/06 03:52:40;;;;;;;18.13;3.88;;;;;;;;;;5011138;28;20468;-68
2024/04/06 03:55:05;;;;;;;22.60;4.00;;;;;;;;;;5012700;28;20033;-68
2024/04/06 03:57:30;;;;;;;24.08;5.15;;;;;;;;;;5013013;28;20430;-68
2024/04/06 03:59:56;;;;;;;18.40;5.28;;;;;;;;;;5012834;28;20028;-68
2024/04/06 04:02:21;;;;;;;14.60;3.85;;;;;;;;;;5012738;28;20028;-68
2024/04/06 04:04:46;;;;;;;22.77;3.63;;;;;;;;;;5012175;28;20018;-68
2024/04/06 04:07:12;;;;;;;17.52;3.92;;;;;;;;;;5012394;28;20060;-68
2024/04/06 04:09:37;;;;;;;24.48;4.13;;;;;;;;;;5012739;28;20038;-68
2024/04/06 04:12:02;;;;;;;24.48;4.35;;;;;;;;;;5012523;28;20026;-68
2024/04/06 04:14:29;;;;;;;20.17;4.70;;;;;;;;;;5012441;28;20057;-68
2024/04/06 04:16:54;;;;;;;20.95;3.47;;;;;;;;;;5012285;28;20054;-68
2024/04/06 04:19:19;;;;;;;18.88;4.30;;;;;;;;;;5012502;28;20076;-68
2024/04/06 04:21:45;;;;;;;19.30;4.68;;;;;;;;;;5012847;28;20040;-68
2024/04/06 04:24:10;;;;;;;19.35;3.83;;;;;;;;;;5015387;28;20391;-68
2024/04/06 04:26:36;;;;;;;24.23;4.10;;;;;;;;;;5016527;28;20021;-68
2024/04/06 04:29:01;;;;;;;22.60;4.57;;;;;;;;;;5016101;28;20046;-68
2024/04/06 04:31:27;;;;;;;13.55;3.00;;;;;;;;;;5016695;28;20392;-68
2024/04/06 04:33:52;;;;;;;19.85;4.18;;;;;;;;;;5016182;28;20048;-68
2024/04/06 04:36:18;;;;;;;21.83;3.83;;;;;;;;;;5016296;28;20022;-68
2024/04/06 04:38:43;;;;;;;21.60;4.57;;;;;;;;;;5016388;28;20028;-68
2024/04/06 04:41:09;;;;;;;21.17;3.95;;;;;;;;;;5016030;28;20025;-68
2024/04/06 04:43:35;;;;;;;18.75;4.47;;;;;;;;;;5015632;28;20408;-68
2024/04/06 04:46:00;;;;;;;21.15;3.88;;;;;;;;;;5015937;28;20026;-68
2024/04/06 04:48:31;;;;;;;20.00;3.65;;;;;;;;;;5016117;28;20036;-68
2024/04/06 04:50:56;;;;;;;16.10;4.00;;;;;;;;;;5014683;28;20030;-68
2024/04/06 04:53:22;;;;;;;22.70;3.83;;;;;;;;;;5015307;28;20380;-68
2024/04/06 04:55:47;;;;;;;27.63;3.72;;;;;;;;;;5016295;28;20061;-68
2024/04/06 04:58:12;;;;;;;21.35;4.60;;;;;;;;;;5015717;28;20484;-68
2024/04/06 05:00:38;;;;;;;26.73;3.90;;;;;;;;;;5015602;28;20025;-67
2024/04/06 05:03:04;;;;;;;14.35;4.50;;;;;;;;;;5015918;28;20021;-68
2024/04/06 05:05:29;;;;;;;22.60;4.47;;;;;;;;;;5015799;28;20022;-68
2024/04/06 05:07:54;;;;;;;19.17;4.28;;;;;;;;;;5015014;28;20030;-68
2024/04/06 05:10:20;;;;;;;24.17;4.13;;;;;;;;;;5015669;28;20495;-68
2024/04/06 05:12:45;;;;;;;19.48;4.18;;;;;;;;;;5015646;28;20036;-68
2024/04/06 05:15:10;;;;;;;19.13;4.18;;;;;;;;;;5016240;28;20075;-68
2024/04/06 05:17:37;;;;;;;16.30;3.13;;;;;;;;;;5015278;28;20028;-68
2024/04/06 05:20:05;;;;;;;15.80;2.95;;;;;;;;;;5013639;28;20025;-68
2024/04/06 05:22:31;;;;;;;20.35;3.30;;;;;;;;;;5014105;28;20028;-68
2024/04/06 05:24:56;;;;;;;22.85;4.50;;;;;;;;;;5015052;28;20616;-67
2024/04/06 05:27:22;;;;;;;18.23;3.03;;;;;;;;;;5015376;28;20028;-68
2024/04/06 05:29:47;;;;;;;13.10;4.97;;;;;;;;;;5015037;28;20022;-68
2024/04/06 05:32:12;;;;;;;16.15;4.50;;;;;;;;;;5014610;28;20026;-68
2024/04/06 05:34:38;;;;;;;11.63;4.10;;;;;;;;;;5014874;28;20022;-68
2024/04/06 05:37:03;;;;;;;12.23;3.72;;;;;;;;;;5015055;28;20434;-68
2024/04/06 05:39:28;;;;;;;17.27;4.07;;;;;;;;;;5015237;28;20068;-68
2024/04/06 05:41:54;;;;;;;15.43;3.92;;;;;;;;;;5014675;28;20052;-68
2024/04/06 05:44:22;;;;;;;13.73;3.47;;;;;;;;;;5014451;28;20075;-68
2024/04/06 05:46:47;;;;;;;18.25;3.72;;;;;;;;;;5014739;28;20079;-68
2024/04/06 05:49:13;;;;;;;19.48;4.20;;;;;;;;;;5013596;28;20038;-68
2024/04/06 05:51:38;;;;;;;19.90;3.53;;;;;;;;;;5014953;28;20018;-68
2024/04/06 05:54:03;;;;;;;23.10;4.00;;;;;;;;;;5014014;28;20025;-68
2024/04/06 05:56:29;;;;;;;11.55;4.22;;;;;;;;;;5014810;28;20037;-69
2024/04/06 05:58:55;;;;;;;15.18;3.25;;;;;;;;;;5014690;28;20030;-68
2024/04/06 06:01:21;;;;;;;15.80;4.03;;;;;;;;;;5014589;28;20030;-68
2024/04/06 06:03:47;;;;;;;12.88;3.00;;;;;;;;;;5014336;28;20025;-67
2024/04/06 06:06:13;;;;;;;18.55;4.90;;;;;;;;;;5014429;28;20036;-68
2024/04/06 06:08:39;;;;;;;23.88;4.07;;;;;;;;;;5014642;28;20101;-68
2024/04/06 06:11:05;;;;;;;20.48;6.43;;;;;;;;;;5013139;28;20030;-68
2024/04/06 06:13:30;;;;;;;14.55;4.53;;;;;;;;;;5045868;23;20049;-69
2024/04/06 06:15:55;;;;;;;21.63;5.57;;;;;;;;;;5032755;28;20039;-68
2024/04/06 06:18:21;;;;;;;13.23;3.90;;;;;;;;;;5033782;28;20025;-69
2024/04/06 06:20:46;;;;;;;18.40;4.15;;;;;;;;;;5032714;28;20021;-68
2024/04/06 06:23:11;;;;;;;24.80;3.90;;;;;;;;;;5041355;28;20025;-69
2024/04/06 06:25:38;;;;;;;22.70;3.75;;;;;;;;;;5053334;28;20390;-68
2024/04/06 06:28:03;;;;;;;18.33;3.65;;;;;;;;;;5052487;28;20028;-69
2024/04/06 06:30:29;;;;;;;18.15;3.83;;;;;;;;;;5053629;28;20398;-68
2024/04/06 06:32:57;;;;;;;13.35;3.85;;;;;;;;;;5053773;28;20020;-68
2024/04/06 06:35:22;;;;;;;14.00;4.35;;;;;;;;;;5053289;28;20025;-69
2024/04/06 06:37:48;;;;;;;13.00;3.92;;;;;;;;;;5053695;28;20066;-69
2024/04/06 06:40:13;;;;;;;17.65;3.88;;;;;;;;;;5052833;28;20031;-68
2024/04/06 06:42:38;;;;;;;17.45;3.72;;;;;;;;;;5053202;28;20374;-68
2024/04/06 06:45:05;;;;;;;19.52;4.22;;;;;;;;;;5053049;28;20515;-68
2024/04/06 06:47:32;;;;;;;15.18;2.58;;;;;;;;;;5053281;28;20025;-69
2024/04/06 06:49:57;;;;;;;15.63;3.25;;;;;;;;;;5053516;28;20123;-69
2024/04/06 06:52:23;;;;;;;12.73;3.42;;;;;;;;;;5053151;28;20424;-69
2024/04/06 06:54:48;;;;;;;20.73;3.30;;;;;;;;;;5053236;28;20024;-68
2024/04/06 06:57:13;;;;;;;18.27;4.18;;;;;;;;;;5053255;28;20028;-68
2024/04/06 06:59:39;;;;;;;15.30;3.60;;;;;;;;;;5052651;28;20025;-68
2024/04/06 07:02:05;;;;;;;12.15;2.85;;;;;;;;;;5052954;28;20467;-68
2024/04/06 07:04:30;;;;;;;19.25;3.67;;;;;;;;;;5053008;28;20114;-68
2024/04/06 07:06:55;;;;;;;20.23;3.85;;;;;;;;;;5052923;28;20020;-68
2024/04/06 07:09:21;;;;;;;13.25;4.20;;;;;;;;;;5053080;28;20025;-68
2024/04/06 07:11:46;;;;;;;9.88;3.20;;;;;;;;;;5052476;28;20017;-68
2024/04/06 07:14:12;;;;;;;9.52;3.42;;;;;;;;;;5052671;28;20143;-68
2024/04/06 07:16:37;;;;;;;15.07;3.50;;;;;;;;;;5044782;28;20475;-68
2024/04/06 07:19:03;;;;;;;10.43;3.05;;;;;;;;;;5033243;28;20021;-69
2024/04/06 07:21:28;;;;;;;10.68;3.17;;;;;;;;;;5032858;28;20037;-68
2024/04/06 07:23:54;;;;;;;12.48;3.13;;;;;;;;;;5033088;28;20022;-68
2024/04/06 07:26:19;;;;;;;11.50;3.10;;;;;;;;;;5032343;28;20021;-68
2024/04/06 07:28:44;;;;;;;16.23;2.80;;;;;;;;;;5039787;28;20025;-68
2024/04/06 07:31:10;;;;;;;10.57;3.83;;;;;;;;;;5052445;28;20025;-68
2024/04/06 07:33:35;;;;;;;9.90;3.30;;;;;;;;;;5032974;28;20037;-68
2024/04/06 07:36:01;;;;;;;13.90;3.28;;;;;;;;;;5032187;28;20027;-68
2024/04/06 07:38:26;;;;;;;15.63;3.15;;;;;;;;;;5034053;28;20043;-68
2024/04/06 07:41:03;;;;;;;13.80;3.22;;;;;;;;;;5054265;28;20075;-68
2024/04/06 07:43:29;;;;;;;13.00;3.55;;;;;;;;;;5051021;28;20020;-69
2024/04/06 07:45:55;;;;;;;13.50;3.28;;;;;;;;;;5052158;28;20104;-69
2024/04/06 07:48:20;;;;;;;8.02;2.95;;;;;;;;;;5052519;28;20021;-69
2024/04/06 07:50:46;;;;;;;14.13;3.13;;;;;;;;;;5051488;28;20020;-68
2024/04/06 07:53:11;;;;;;;16.85;3.38;;;;;;;;;;5051816;28;20100;-69
2024/04/06 07:55:37;;;;;;;12.02;3.22;;;;;;;;;;5051224;28;20134;-69
2024/04/06 07:58:02;;;;;;;11.40;2.47;;;;;;;;;;5054296;28;20083;-69
2024/04/06 08:00:28;;;;;;;19.10;2.75;;;;;;;;;;5056886;28;20039;-69
2024/04/06 08:02:53;;;;;;;10.60;3.15;;;;;;;;;;5040350;28;20025;-69
2024/04/06 08:05:18;;;;;;;14.68;2.72;;;;;;;;;;5035895;28;20024;-69
2024/04/06 08:07:44;;;;;;;11.55;3.08;;;;;;;;;;5040234;28;20035;-69
2024/04/06 08:10:14;;;;;;;16.98;3.30;;;;;;;;;;5056393;28;20501;-69
2024/04/06 08:12:42;;;;;;;9.20;3.00;;;;;;;;;;5035398;28;20037;-69
2024/04/06 08:15:08;;;;;;;13.05;3.13;;;;;;;;;;5049061;28;20055;-69
2024/04/06 08:17:34;;;;;;;9.07;2.55;;;;;;;;;;5056087;28;20450;-69
2024/04/06 08:20:00;;;;;;;8.77;2.83;;;;;;;;;;5051204;28;20431;-69
2024/04/06 08:22:25;;;;;;;9.05;3.20;;;;;;;;;;5056051;28;20086;-69
2024/04/06 08:24:50;;;;;;;15.77;4.55;;;;;;;;;;5056079;28;20043;-69
2024/04/06 08:27:16;;;;;;;12.48;3.45;;;;;;;;;;5055604;28;20040;-69
2024/04/06 08:29:41;;;;;;;13.10;3.13;;;;;;;;;;5056096;28;20074;-69
2024/04/06 08:32:07;;;;;;;14.65;4.97;;;;;;;;;;5056186;28;20055;-68
2024/04/06 08:34:32;;;;;;;9.25;3.97;;;;;;;;;;5056191;28;20070;-69
2024/04/06 08:36:57;;;;;;;9.85;2.42;;;;;;;;;;5053490;28;20020;-69
2024/04/06 08:39:24;;;;;;;9.15;4.22;;;;;;;;;;5035765;28;20026;-69
2024/04/06 08:41:51;;;;;;;13.32;2.97;;;;;;;;;;5035848;28;20018;-69
2024/04/06 08:44:20;;;;;;;9.82;3.13;;;;;;;;;;5049391;28;20058;-68
2024/04/06 08:46:45;;;;;;;14.48;3.20;;;;;;;;;;5054492;28;20025;-69
2024/04/06 08:49:12;;;;;;;10.10;2.90;;;;;;;;;;5054086;28;20017;-69
2024/04/06 08:51:40;;;;;;;13.07;3.58;;;;;;;;;;5055513;28;20039;-69
2024/04/06 08:54:05;;;;;;;10.98;3.83;;;;;;;;;;5054948;28;20406;-69
2024/04/06 08:56:31;;;;;;;10.45;2.63;;;;;;;;;;5051349;28;20019;-67
2024/04/06 08:58:56;;;;;;;17.40;3.00;;;;;;;;;;5055567;28;20074;-69
2024/04/06 09:01:21;;;;;;;12.00;2.65;;;;;;;;;;5050527;28;20021;-67
2024/04/06 09:03:47;;;;;;;12.73;2.92;;;;;;;;;;5055588;28;20033;-69
2024/04/06 09:06:18;;;;;;;11.07;3.33;;;;;;;;;;5054853;28;20024;-69
2024/04/06 09:08:44;;;;;;;8.27;2.45;;;;;;;;;;5053848;28;20078;-69
2024/04/06 09:11:12;;;;;;;14.80;3.10;;;;;;;;;;5055379;28;20025;-69
2024/04/06 09:13:40;;;;;;;6.63;2.42;;;;;;;;;;5055037;28;20029;-69
2024/04/06 09:16:07;;;;;;;7.50;2.40;;;;;;;;;;5066927;28;20089;-69
2024/04/06 09:18:33;;;;;;;15.13;2.42;;;;;;;;;;5051125;28;20025;-68
2024/04/06 09:20:58;;;;;;;10.35;2.92;;;;;;;;;;5047590;28;20038;-69
2024/04/06 09:23:24;;;;;;;7.43;2.50;;;;;;;;;;5044219;28;20430;-68
2024/04/06 09:25:59;;;;;;;9.13;3.20;;;;;;;;;;5055196;28;20064;-68
2024/04/06 09:28:24;;;;;;;17.73;3.00;;;;;;;;;;5054538;28;20021;-68
2024/04/06 09:30:51;;;;;;;5.07;2.17;;;;;;;;;;5049909;28;20040;-68
2024/04/06 09:33:18;;;;;;;10.52;2.90;;;;;;;;;;5053044;28;20028;-68
2024/04/06 09:35:43;;;;;;;6.88;2.33;;;;;;;;;;5053409;28;20555;-69
2024/04/06 09:38:15;;;;;;;19.15;3.30;;;;;;;;;;5053466;28;20025;-69
2024/04/06 09:40:43;;;;;;;13.88;3.10;;;;;;;;;;5054671;28;20036;-70
2024/04/06 09:43:09;;;;;;;11.60;2.75;;;;;;;;;;5054460;28;20036;-70
2024/04/06 09:45:34;;;;;;;11.40;2.33;;;;;;;;;;5053499;28;20074;-68
2024/04/06 09:48:00;;;;;;;10.70;2.47;;;;;;;;;;5054420;28;20471;-69
2024/04/06 09:50:25;;;;;;;12.57;2.83;;;;;;;;;;5052702;28;20036;-70
2024/04/06 09:52:51;;;;;;;11.38;2.65;;;;;;;;;;5036558;28;20045;-68
2024/04/06 09:55:16;;;;;;;11.82;2.33;;;;;;;;;;5054892;28;20025;-70
2024/04/06 09:57:41;;;;;;;10.50;2.83;;;;;;;;;;5053249;28;20463;-69
2024/04/06 10:00:07;;;;;;;13.35;2.90;;;;;;;;;;5054648;28;20067;-69
2024/04/06 10:02:33;;;;;;;8.35;2.35;;;;;;;;;;5053649;28;20020;-68
2024/04/06 10:05:00;;;;;;;8.18;2.83;;;;;;;;;;5053608;28;20502;-69
2024/04/06 10:07:29;;;;;;;6.22;2.22;;;;;;;;;;5053652;28;20056;-68
2024/04/06 10:10:06;;;;;;;8.32;2.63;;;;;;;;;;5039604;28;20029;-68
2024/04/06 10:12:42;;;;;;;8.90;2.78;;;;;;;;;;5033938;28;20036;-68
2024/04/06 10:15:12;;;;;;;7.97;2.65;;;;;;;;;;5046811;28;20053;-68
2024/04/06 10:17:52;;;;;;;12.13;2.67;;;;;;;;;;5054301;28;20043;-68
2024/04/06 10:20:24;;;;;;;17.50;3.95;;;;;;;;;;5053120;28;20099;-68
2024/04/06 10:22:50;;;;;;;9.20;2.45;;;;;;;;;;5053695;28;20045;-69
2024/04/06 10:25:17;;;;;;;5.82;2.10;;;;;;;;;;5053823;28;20024;-68
2024/04/06 10:27:42;;;;;;;8.70;2.28;;;;;;;;;;5053093;28;20040;-68
2024/04/06 10:30:08;;;;;;;11.32;2.80;;;;;;;;;;5053622;28;20028;-68
2024/04/06 10:32:33;;;;;;;9.88;2.70;;;;;;;;;;5051228;28;20060;-67
2024/04/06 10:34:59;;;;;;;8.60;2.42;;;;;;;;;;5034147;28;20021;-68
2024/04/06 10:37:25;;;;;;;8.90;2.05;;;;;;;;;;5033795;28;20364;-67
2024/04/06 10:39:51;;;;;;;11.50;2.33;;;;;;;;;;5052394;28;20051;-66
2024/04/06 10:42:16;;;;;;;6.57;2.00;;;;;;;;;;5053546;28;20021;-67
2024/04/06 10:44:41;;;;;;;8.68;2.83;;;;;;;;;;5053191;28;20031;-66
2024/04/06 10:47:10;;;;;;;15.88;2.50;;;;;;;;;;5053443;28;20029;-67
2024/04/06 10:49:36;;;;;;;11.57;2.45;;;;;;;;;;5053422;28;20063;-66
2024/04/06 10:52:01;;;;;;;7.57;2.00;;;;;;;;;;5053455;28;20020;-66
2024/04/06 10:54:26;;;;;;;9.80;2.45;;;;;;;;;;5051984;28;20028;-66
2024/04/06 10:56:52;;;;;;;8.07;1.88;;;;;;;;;;5053344;28;20413;-66
2024/04/06 10:59:18;;;;;;;14.23;2.83;;;;;;;;;;5052661;28;20036;-67
2024/04/06 11:01:43;;;;;;;11.18;2.25;;;;;;;;;;5051904;28;20382;-67
2024/04/06 11:04:12;;;;;;;9.30;1.90;;;;;;;;;;5053332;28;20024;-67
2024/04/06 11:06:37;;;;;;;14.65;2.53;;;;;;;;;;5052669;28;20024;-67
2024/04/06 11:09:06;;;;;;;6.15;1.90;;;;;;;;;;5043191;28;20494;-66
2024/04/06 11:11:32;;;;;;;6.82;2.05;;;;;;;;;;5033345;28;20049;-67
2024/04/06 11:13:58;;;;;;;9.45;2.35;;;;;;;;;;5032951;28;20035;-67
2024/04/06 11:16:25;;;;;;;6.00;2.22;;;;;;;;;;5033652;28;20029;-67
2024/04/06 11:18:50;;;;;;;6.40;2.00;;;;;;;;;;5032711;28;20021;-67
2024/04/06 11:21:16;;;;;;;13.48;2.28;;;;;;;;;;5045777;28;20391;-67
2024/04/06 11:23:43;;;;;;;8.10;1.95;;;;;;;;;;5051737;28;20443;-67
2024/04/06 11:26:08;;;;;;;6.90;2.13;;;;;;;;;;5048786;28;20025;-67
2024/04/06 11:28:34;;;;;;;9.38;2.17;;;;;;;;;;5032833;28;20356;-68
2024/04/06 11:31:02;;;;;;;8.05;2.35;;;;;;;;;;5033023;28;20029;-68
2024/04/06 11:33:28;;;;;;;8.10;2.10;;;;;;;;;;5048084;28;20027;-66
2024/04/06 11:35:56;;;;;;;10.85;2.35;;;;;;;;;;5053118;28;20032;-66
2024/04/06 11:38:22;;;;;;;13.68;2.60;;;;;;;;;;5052537;28;20021;-67
2024/04/06 11:40:47;;;;;;;6.85;2.00;;;;;;;;;;5035262;28;20475;-66
2024/04/06 11:43:16;;;;;;;12.82;2.60;;;;;;;;;;5032954;28;20021;-67
2024/04/06 11:45:42;;;;;;;13.45;2.63;;;;;;;;;;5040746;28;20021;-66
2024/04/06 11:48:08;;;;;;;7.85;2.83;;;;;;;;;;5052739;28;20441;-67
2024/04/06 11:50:33;;;;;;;8.75;2.25;;;;;;;;;;5052765;28;20033;-66
2024/04/06 11:52:58;;;;;;;12.73;2.85;;;;;;;;;;5052544;28;20032;-66
2024/04/06 11:55:24;;;;;;;6.90;2.50;;;;;;;;;;5051904;28;20033;-67
2024/04/06 11:57:49;;;;;;;8.15;2.72;;;;;;;;;;5042487;28;20021;-66
2024/04/06 12:00:15;;;;;;;8.07;3.25;;;;;;;;;;5032628;28;20042;-67
2024/04/06 12:02:41;;;;;;;6.68;2.38;;;;;;;;;;5032747;28;20017;-67
2024/04/06 12:05:07;;;;;;;10.15;3.80;;;;;;;;;;5032454;28;20032;-66
2024/04/06 12:07:33;;;;;;;7.57;3.05;;;;;;;;;;5030981;28;20026;-67
2024/04/06 12:09:59;;;;;;;4.85;2.55;;;;;;;;;;5043969;28;20021;-66
2024/04/06 12:12:24;;;;;;;10.40;2.90;;;;;;;;;;5051365;28;20040;-66
2024/04/06 12:14:49;;;;;;;7.90;3.00;;;;;;;;;;5033727;23;20112;-68
2024/04/06 12:17:22;;;;;;;6.90;2.92;;;;;;;;;;5012892;28;20581;-67
2024/04/06 12:19:47;;;;;;;11.10;3.45;;;;;;;;;;5011952;28;20446;-67
2024/04/06 12:22:12;;;;;;;9.55;3.53;;;;;;;;;;5012461;28;20026;-67
2024/04/06 12:24:40;;;;;;;7.47;3.97;;;;;;;;;;5012810;28;20018;-67
2024/04/06 12:27:05;;;;;;;12.93;4.18;;;;;;;;;;5011764;28;20030;-67
2024/04/06 12:29:31;;;;;;;13.98;3.65;;;;;;;;;;5012884;28;20021;-67
2024/04/06 12:31:56;;;;;;;10.43;5.40;;;;;;;;;;5012935;28;20026;-68
2024/04/06 12:34:22;;;;;;;10.93;3.25;;;;;;;;;;5012482;28;20030;-67
2024/04/06 12:36:47;;;;;;;6.75;3.15;;;;;;;;;;5012761;28;20083;-68
2024/04/06 12:39:13;;;;;;;6.20;3.00;;;;;;;;;;5011770;28;20097;-68
2024/04/06 12:41:38;;;;;;;7.10;2.72;;;;;;;;;;5012713;28;20018;-68
2024/04/06 12:44:03;;;;;;;5.55;2.53;;;;;;;;;;5014114;28;20025;-68
2024/04/06 12:46:29;;;;;;;7.38;2.63;;;;;;;;;;5015780;28;20033;-68
2024/04/06 12:48:54;;;;;;;5.88;2.95;;;;;;;;;;5016331;28;20505;-68
2024/04/06 12:51:19;;;;;;;11.70;3.53;;;;;;;;;;5015118;28;20025;-68
2024/04/06 12:53:45;;;;;;;11.77;3.92;;;;;;;;;;5016255;28;20096;-68
2024/04/06 12:56:10;;;;;;;8.82;3.20;;;;;;;;;;5016489;28;20028;-68
2024/04/06 12:58:36;;;;;;;6.63;3.13;;;;;;;;;;5016199;28;20072;-68
2024/04/06 13:01:02;;;;;;;8.43;3.20;;;;;;;;;;5015818;28;20095;-68
2024/04/06 13:03:27;;;;;;;7.15;3.40;;;;;;;;;;5015166;28;20392;-68
2024/04/06 13:05:53;;;;;;;7.43;3.28;;;;;;;;;;5015927;28;20028;-68
2024/04/06 13:08:18;;;;;;;6.82;3.70;;;;;;;;;;5014596;28;20056;-68
2024/04/06 13:10:44;;;;;;;7.47;3.83;;;;;;;;;;5015921;28;20030;-68
2024/04/06 13:13:09;;;;;;;6.03;3.00;;;;;;;;;;5015890;28;20462;-68
2024/04/06 13:15:35;;;;;;;5.85;3.20;;;;;;;;;;5015841;28;20022;-68
2024/04/06 13:18:00;;;;;;;5.32;3.30;;;;;;;;;;5005930;28;20022;-68
2024/04/06 13:20:26;;;;;;;10.65;3.50;;;;;;;;;;4995807;28;20033;-68
2024/04/06 13:22:52;;;;;;;10.80;3.42;;;;;;;;;;4998289;28;20023;-68
2024/04/06 13:25:19;;;;;;;6.50;3.85;;;;;;;;;;5014906;28;20028;-68
2024/04/06 13:27:44;;;;;;;7.88;4.25;;;;;;;;;;5015003;28;20112;-68
2024/04/06 13:30:13;;;;;;;6.60;3.92;;;;;;;;;;5031506;28;20056;-68
2024/04/06 13:32:39;;;;;;;12.25;3.80;;;;;;;;;;5015900;28;20110;-68
2024/04/06 13:35:08;;;;;;;5.10;3.80;;;;;;;;;;5015538;28;20025;-68
2024/04/06 13:37:34;;;;;;;5.65;3.47;;;;;;;;;;5014788;28;20476;-68
2024/04/06 13:40:00;;;;;;;9.35;4.07;;;;;;;;;;5030919;28;20107;-68
2024/04/06 13:42:25;;;;;;;7.68;3.42;;;;;;;;;;5014112;28;20065;-68
2024/04/06 13:44:51;;;;;;;8.50;4.07;;;;;;;;;;5015480;28;20372;-68
2024/04/06 13:47:16;;;;;;;8.90;4.07;;;;;;;;;;5015744;28;20026;-68
2024/04/06 13:49:43;;;;;;;7.63;3.53;;;;;;;;;;5015657;28;20029;-68
2024/04/06 13:52:08;;;;;;;7.82;3.22;;;;;;;;;;5030590;28;20435;-68
2024/04/06 13:54:36;;;;;;;7.65;4.88;;;;;;;;;;5013701;28;20025;-68
2024/04/06 13:57:01;;;;;;;4.93;3.30;;;;;;;;;;5008679;28;20022;-68
2024/04/06 13:59:27;;;;;;;5.22;3.20;;;;;;;;;;4994617;28;20041;-68
2024/04/06 14:01:53;;;;;;;6.90;3.50;;;;;;;;;;5001135;28;20021;-68
2024/04/06 14:04:19;;;;;;;7.70;3.53;;;;;;;;;;5030622;28;20395;-68
2024/04/06 14:06:47;;;;;;;7.40;3.38;;;;;;;;;;5014930;28;20026;-68
2024/04/06 14:09:18;;;;;;;6.93;3.67;;;;;;;;;;5013453;28;20037;-68
2024/04/06 14:11:43;;;;;;;10.07;3.85;;;;;;;;;;5029644;28;20103;-68
2024/04/06 14:14:21;;;;;;;6.32;3.90;;;;;;;;;;5029966;28;20030;-69
2024/04/06 14:16:47;;;;;;;7.53;3.47;;;;;;;;;;5014977;28;20021;-68
2024/04/06 14:19:22;;;;;;;4.95;3.47;;;;;;;;;;5014546;28;20532;-68
2024/04/06 14:21:52;;;;;;;10.68;4.70;;;;;;;;;;5029279;28;20034;-68
2024/04/06 14:24:17;;;;;;;9.45;4.18;;;;;;;;;;5012702;28;20057;-68
2024/04/06 14:26:43;;;;;;;5.60;3.72;;;;;;;;;;5013019;28;20108;-68